This is the latest recevied weather packets stored in our database for station/object IU1OPQ-3. If no packets are shown the sender has not sent any weather packets the latest 10 day(s).
| Time | Temp. | Humidity | Pressure | Rain* | Wind** | Luminosity | Snow |
|---|---|---|---|---|---|---|---|
| 1777675501 | 13.33° C | 51% | 1025.4 hPa | 0 mm | - | - | - |
| 1777674601 | 13.89° C | 50% | 1025.5 hPa | 0 mm | - | - | - |
| 1777673701 | 12.78° C | 53% | 1025.7 hPa | 0 mm | - | - | - |
| 1777672801 | 13.33° C | 51% | 1025.5 hPa | 0 mm | - | - | - |
| 1777671900 | 13.33° C | 52% | 1025.4 hPa | 0 mm | - | - | - |
| 1777671000 | 13.89° C | 52% | 1025.5 hPa | 0 mm | - | - | - |
| 1777670100 | 13.33° C | 52% | 1025.5 hPa | 0 mm | - | - | - |
| 1777669201 | 13.33° C | 52% | 1025.5 hPa | 0 mm | - | - | - |
| 1777668300 | 13.33° C | 52% | 1025.6 hPa | 0 mm | - | - | - |
| 1777667401 | 13.89° C | 51% | 1025.3 hPa | 0 mm | - | - | - |
| 1777666501 | 13.89° C | 50% | 1025.2 hPa | 0 mm | - | - | - |
| 1777665601 | 13.89° C | 50% | 1025.4 hPa | 0 mm | - | - | - |
| 1777664701 | 13.89° C | 51% | 1025 hPa | 0 mm | - | - | - |
| 1777663801 | 13.89° C | 51% | 1025.1 hPa | 0 mm | - | - | - |
| 1777662901 | 13.89° C | 52% | 1024.9 hPa | 0 mm | - | - | - |
| 1777662001 | 13.89° C | 51% | 1024.7 hPa | 0 mm | - | - | - |
| 1777661101 | 13.89° C | 51% | 1024.7 hPa | 0 mm | - | - | - |
| 1777660201 | 14.44° C | 48% | 1024.8 hPa | 0 mm | - | - | - |
| 1777659301 | 15° C | 48% | 1024.6 hPa | 0 mm | - | - | - |
| 1777658401 | 15.56° C | 47% | 1024.5 hPa | 0 mm | - | - | - |
| 1777657501 | 15.56° C | 48% | 1024.6 hPa | 0 mm | - | - | - |
| 1777656601 | 15.56° C | 47% | 1024.6 hPa | 0 mm | - | - | - |
| 1777655700 | 16.67° C | 46% | 1024.8 hPa | 0 mm | - | - | - |
| 1777654801 | 16.67° C | 43% | 1024.7 hPa | 0 mm | - | - | - |
| 1777653901 | 17.22° C | 43% | 1024.8 hPa | 0 mm | - | - | - |
* Rain latest hour (hover to see other rain measurements)
** Current wind speed in m/s (hover to see current wind gust speed)